Time;durP1;ratioP1;P1;durP2;ratioP2;P2;SDS_P1;SDS_P2;PMS_P1;PMS_P2;Temp;Humidity;BMP_temperature;BMP_pressure;BME280_temperature;BME280_humidity;BME280_pressure;Samples;Min_cycle;Max_cycle;Signal;HPM_P1;HPM_P2
2023/10/10 00:01:44;;;;;;;24.60;23.63;;;15.00;99.90;;;;;;5114617;28;20672;-62
2023/10/10 00:04:11;;;;;;;26.53;25.57;;;15.00;99.90;;;;;;5114608;28;20226;-62
2023/10/10 00:06:39;;;;;;;25.60;24.60;;;15.00;99.90;;;;;;5114528;28;20733;-62
2023/10/10 00:09:09;;;;;;;25.23;24.33;;;15.00;99.90;;;;;;5114081;28;20270;-61
2023/10/10 00:11:41;;;;;;;24.53;23.50;;;15.00;99.90;;;;;;5114474;28;20212;-62
2023/10/10 00:14:15;;;;;;;25.73;24.73;;;15.00;99.90;;;;;;5109929;28;20712;-62
2023/10/10 00:16:43;;;;;;;24.70;23.70;;;14.90;99.90;;;;;;5114381;28;20217;-61
2023/10/10 00:19:17;;;;;;;25.97;24.87;;;14.90;99.90;;;;;;5114021;28;20198;-62
2023/10/10 00:21:45;;;;;;;21.73;20.93;;;14.80;99.90;;;;;;5114388;28;20202;-62
2023/10/10 00:24:12;;;;;;;26.70;25.50;;;14.80;99.90;;;;;;5114435;28;20290;-61
2023/10/10 00:26:40;;;;;;;26.87;25.83;;;14.80;99.90;;;;;;5114339;28;20206;-63
2023/10/10 00:29:08;;;;;;;27.17;26.07;;;14.80;99.90;;;;;;5113609;28;20700;-63
2023/10/10 00:31:43;;;;;;;27.20;26.03;;;14.80;99.90;;;;;;5114012;28;20273;-62
2023/10/10 00:34:55;;;;;;;29.77;28.50;;;14.80;99.90;;;;;;5115164;28;20229;-63
2023/10/10 00:37:29;;;;;;;26.27;25.20;;;14.70;99.90;;;;;;5110738;28;20218;-63
2023/10/10 00:39:58;;;;;;;25.30;24.30;;;14.70;99.90;;;;;;5117338;28;20206;-63
2023/10/10 00:42:36;;;;;;;24.97;23.97;;;14.70;99.90;;;;;;5113494;28;20577;-63
2023/10/10 00:45:04;;;;;;;23.37;22.47;;;14.70;99.90;;;;;;5115059;28;20696;-64
2023/10/10 00:47:32;;;;;;;22.67;21.77;;;14.70;99.90;;;;;;5117237;28;20255;-62
2023/10/10 00:49:59;;;;;;;23.57;22.63;;;14.60;99.90;;;;;;5119182;28;20227;-63
2023/10/10 00:52:30;;;;;;;23.40;22.50;;;14.70;99.90;;;;;;5114597;28;20209;-62
2023/10/10 00:54:56;;;;;;;27.30;26.20;;;14.60;99.90;;;;;;5119036;28;20209;-62
2023/10/10 00:57:27;;;;;;;25.93;24.93;;;14.60;99.90;;;;;;5116250;28;20256;-62
2023/10/10 00:59:54;;;;;;;22.57;21.57;;;14.60;99.90;;;;;;5122856;28;20216;-61
2023/10/10 01:02:22;;;;;;;22.80;21.90;;;14.60;99.90;;;;;;5121544;28;20278;-63
2023/10/10 01:04:55;;;;;;;25.13;24.20;;;14.60;99.90;;;;;;5115403;28;20706;-63
2023/10/10 01:07:22;;;;;;;22.47;21.57;;;14.60;99.90;;;;;;5109614;28;20297;-61
2023/10/10 01:09:56;;;;;;;25.20;24.20;;;14.60;99.90;;;;;;5113743;28;20593;-63
2023/10/10 01:12:24;;;;;;;25.15;24.15;;;14.50;99.90;;;;;;5114182;28;20213;-62
2023/10/10 01:14:54;;;;;;;29.37;28.20;;;14.50;99.90;;;;;;5113539;28;20224;-62
2023/10/10 01:17:28;;;;;;;25.07;24.07;;;14.40;99.90;;;;;;5113501;28;20212;-62
2023/10/10 01:19:56;;;;;;;26.33;25.27;;;14.40;99.90;;;;;;5113089;28;20217;-63
2023/10/10 01:22:36;;;;;;;25.33;24.30;;;14.40;99.90;;;;;;5112991;28;20209;-61
2023/10/10 01:25:14;;;;;;;24.67;23.67;;;14.40;99.90;;;;;;5113316;28;20210;-61
2023/10/10 01:27:43;;;;;;;25.03;24.03;;;14.40;99.90;;;;;;5112930;28;20724;-63
2023/10/10 01:30:17;;;;;;;23.53;22.50;;;14.30;99.90;;;;;;5112632;28;20214;-61
2023/10/10 01:32:50;;;;;;;25.43;24.47;;;14.30;99.90;;;;;;5113172;28;20232;-62
2023/10/10 01:35:17;;;;;;;23.73;22.73;;;14.30;99.90;;;;;;5112994;28;20210;-60
2023/10/10 01:37:54;;;;;;;24.37;23.40;;;14.20;99.90;;;;;;5112978;28;20208;-63
2023/10/10 01:40:23;;;;;;;26.67;25.67;;;14.20;99.90;;;;;;5112809;28;20684;-61
2023/10/10 01:42:53;;;;;;;25.13;24.13;;;14.30;99.90;;;;;;5112643;28;20233;-61
2023/10/10 01:45:20;;;;;;;29.30;28.13;;;14.30;99.90;;;;;;5108438;28;20213;-62
2023/10/10 01:47:57;;;;;;;26.90;25.73;;;14.30;99.90;;;;;;5112633;28;20723;-61
2023/10/10 01:50:26;;;;;;;26.10;25.10;;;14.30;99.90;;;;;;5112842;28;20201;-62
2023/10/10 01:52:56;;;;;;;24.23;22.90;;;14.30;99.90;;;;;;5112845;28;20304;-61
2023/10/10 01:55:24;;;;;;;26.53;25.50;;;14.30;99.90;;;;;;5113566;28;20298;-61
2023/10/10 01:57:51;;;;;;;26.13;25.13;;;14.40;99.90;;;;;;5112429;28;20198;-62
2023/10/10 02:00:25;;;;;;;23.77;22.87;;;14.30;99.90;;;;;;5112008;28;20233;-62
2023/10/10 02:02:53;;;;;;;24.87;23.87;;;14.30;99.90;;;;;;5112318;28;20224;-62
2023/10/10 02:05:32;;;;;;;31.67;30.43;;;14.30;99.90;;;;;;5112273;28;20233;-62
2023/10/10 02:08:00;;;;;;;26.33;25.23;;;14.30;99.90;;;;;;5111888;28;20255;-61
2023/10/10 02:10:29;;;;;;;26.20;25.10;;;14.30;99.90;;;;;;5112224;28;20209;-62
2023/10/10 02:12:59;;;;;;;28.30;27.10;;;14.20;99.90;;;;;;5112297;28;20741;-62
2023/10/10 02:15:32;;;;;;;25.83;24.73;;;14.20;99.90;;;;;;5111610;28;20661;-61
2023/10/10 02:18:04;;;;;;;28.70;27.50;;;14.20;99.90;;;;;;5112003;28;20212;-61
2023/10/10 02:20:49;;;;;;;27.70;26.60;;;14.20;99.90;;;;;;5111852;28;20206;-62
2023/10/10 02:23:24;;;;;;;26.63;25.60;;;14.20;99.90;;;;;;5111870;28;20638;-61
2023/10/10 02:25:53;;;;;;;27.47;26.37;;;14.20;99.90;;;;;;5111884;28;20288;-61
2023/10/10 02:28:21;;;;;;;25.07;24.17;;;14.10;99.90;;;;;;5111430;28;20225;-61
2023/10/10 02:30:51;;;;;;;24.07;23.17;;;14.10;99.90;;;;;;5111677;28;20230;-62
2023/10/10 02:33:30;;;;;;;25.83;24.87;;;14.10;99.90;;;;;;5111825;28;20229;-62
2023/10/10 02:35:57;;;;;;;24.07;23.10;;;14.00;99.90;;;;;;5112010;28;20676;-61
2023/10/10 02:38:31;;;;;;;24.63;23.70;;;14.00;99.90;;;;;;5111395;28;20205;-62
2023/10/10 02:43:55;;;;;;;25.63;24.63;;;14.00;99.90;;;;;;5111411;28;20313;-61
2023/10/10 02:46:33;;;;;;;26.57;25.47;;;14.00;99.90;;;;;;5112002;28;20232;-62
2023/10/10 02:49:09;;;;;;;22.90;22.10;;;14.00;99.90;;;;;;5111622;28;20249;-62
2023/10/10 02:51:40;;;;;;;25.80;24.80;;;14.00;99.90;;;;;;5111284;28;20227;-62
2023/10/10 02:54:21;;;;;;;25.90;24.90;;;14.10;99.90;;;;;;5111774;28;20230;-61
2023/10/10 02:56:48;;;;;;;27.37;26.27;;;14.10;99.90;;;;;;5111824;28;20206;-61
2023/10/10 02:59:21;;;;;;;22.77;21.77;;;14.10;99.90;;;;;;5111323;28;20282;-61
2023/10/10 03:01:56;;;;;;;24.00;23.00;;;14.10;99.90;;;;;;5111721;28;20210;-62
2023/10/10 03:04:41;;;;;;;25.73;24.60;;;14.00;99.90;;;;;;5111315;28;20232;-62
2023/10/10 03:07:08;;;;;;;24.33;23.23;;;14.00;99.90;;;;;;5111804;28;20209;-61
2023/10/10 03:10:05;;;;;;;24.17;23.17;;;14.00;99.90;;;;;;5111682;28;20825;-62
2023/10/10 03:12:29;;;;;;;25.60;24.60;;;13.90;99.90;;;;;;5112045;28;20210;-63
2023/10/10 03:15:03;;;;;;;26.00;24.90;;;13.80;99.90;;;;;;5112363;28;20209;-61
2023/10/10 03:17:43;;;;;;;27.57;26.47;;;13.80;99.90;;;;;;5112470;28;20209;-61
2023/10/10 03:20:14;;;;;;;23.33;22.33;;;13.80;99.90;;;;;;5111397;28;20205;-63
2023/10/10 03:23:07;;;;;;;24.60;23.63;;;13.70;99.90;;;;;;5111573;28;20267;-62
2023/10/10 03:25:38;;;;;;;25.17;24.07;;;13.70;99.90;;;;;;5111470;28;20744;-61
2023/10/10 03:28:18;;;;;;;25.23;24.13;;;13.70;99.90;;;;;;5115526;28;20216;-63
2023/10/10 03:30:51;;;;;;;27.73;26.73;;;13.70;99.90;;;;;;5115284;28;20297;-61
2023/10/10 03:33:29;;;;;;;24.10;23.10;;;13.70;99.90;;;;;;5115088;28;20230;-62
2023/10/10 03:36:13;;;;;;;24.70;23.60;;;13.70;99.90;;;;;;5115225;28;20255;-61
2023/10/10 03:39:15;;;;;;;23.77;22.85;;;13.70;99.90;;;;;;5114819;28;20206;-62
2023/10/10 05:23:35;;;;;;;23.23;22.33;;;13.00;99.90;;;;;;5118260;28;20252;-69
2023/10/10 05:26:05;;;;;;;23.83;22.93;;;13.10;99.90;;;;;;5117011;28;20213;-67
2023/10/10 05:28:32;;;;;;;23.27;22.27;;;13.20;99.90;;;;;;5114436;28;20314;-70
2023/10/10 05:31:02;;;;;;;21.00;20.20;;;13.20;99.90;;;;;;5113274;28;20205;-67
2023/10/10 05:33:30;;;;;;;22.90;22.00;;;13.30;99.90;;;;;;5116453;28;20340;-66
2023/10/10 05:36:06;;;;;;;22.17;21.37;;;13.30;99.90;;;;;;5116614;28;20753;-67
2023/10/10 05:38:35;;;;;;;21.17;20.37;;;13.40;99.90;;;;;;5114104;28;20206;-67
2023/10/10 05:41:02;;;;;;;22.63;21.80;;;13.40;99.90;;;;;;5112767;28;20241;-63
2023/10/10 05:43:33;;;;;;;21.33;20.53;;;13.40;99.90;;;;;;5113832;28;20237;-68
2023/10/10 05:46:00;;;;;;;20.00;19.20;;;13.40;99.90;;;;;;5113224;28;20737;-68
2023/10/10 05:48:27;;;;;;;19.97;19.17;;;13.40;99.90;;;;;;5111648;28;20209;-67
2023/10/10 05:50:54;;;;;;;21.90;21.00;;;13.30;99.90;;;;;;5112656;28;20270;-69
2023/10/10 05:53:24;;;;;;;25.70;24.70;;;13.30;99.90;;;;;;5112324;28;20272;-67
2023/10/10 05:55:53;;;;;;;21.30;20.50;;;13.30;99.90;;;;;;5112754;28;20206;-67
2023/10/10 05:58:20;;;;;;;23.83;22.83;;;13.30;99.90;;;;;;5115425;28;20687;-68
2023/10/10 06:00:48;;;;;;;20.13;19.40;;;13.30;99.90;;;;;;5114874;28;20300;-66
2023/10/10 06:03:16;;;;;;;20.83;20.00;;;13.30;99.90;;;;;;5115480;28;20603;-66
2023/10/10 06:05:44;;;;;;;22.10;21.30;;;13.30;99.90;;;;;;5111993;28;20731;-66
2023/10/10 06:08:12;;;;;;;21.83;21.03;;;13.40;99.90;;;;;;5111638;28;20215;-68
2023/10/10 06:10:41;;;;;;;21.90;21.10;;;13.40;99.90;;;;;;5112127;28;20234;-66
2023/10/10 06:13:10;;;;;;;20.30;19.50;;;13.40;99.90;;;;;;5111538;28;20225;-66
2023/10/10 06:15:37;;;;;;;19.20;18.47;;;13.50;99.90;;;;;;5111372;28;20248;-67
2023/10/10 06:18:12;;;;;;;18.23;17.53;;;13.50;99.90;;;;;;5111635;28;20738;-66
2023/10/10 06:20:41;;;;;;;20.60;19.87;;;13.60;99.90;;;;;;5112139;28;20204;-66
2023/10/10 06:23:09;;;;;;;20.33;19.60;;;13.60;99.90;;;;;;5111739;28;20627;-67
2023/10/10 06:25:37;;;;;;;17.23;16.63;;;13.70;99.90;;;;;;5111807;28;20213;-66
2023/10/10 06:28:18;;;;;;;20.73;19.93;;;13.80;99.90;;;;;;5111906;28;20237;-69
2023/10/10 06:30:48;;;;;;;17.73;16.93;;;13.80;99.90;;;;;;5112113;28;20226;-67
2023/10/10 06:33:15;;;;;;;17.47;16.77;;;13.80;99.90;;;;;;5112449;28;20233;-68
2023/10/10 06:35:52;;;;;;;20.00;19.13;;;13.80;99.90;;;;;;5111910;28;20202;-66
2023/10/10 06:38:24;;;;;;;20.00;19.20;;;13.80;99.90;;;;;;5112450;28;20610;-66
2023/10/10 06:40:53;;;;;;;18.40;17.60;;;13.80;99.90;;;;;;5112670;28;20255;-67
2023/10/10 06:43:22;;;;;;;22.17;21.20;;;13.70;99.90;;;;;;5112656;28;20234;-66
2023/10/10 06:45:54;;;;;;;22.00;21.10;;;13.70;99.90;;;;;;5112070;28;20672;-67
2023/10/10 06:48:22;;;;;;;18.90;18.10;;;13.70;99.90;;;;;;5111909;28;20210;-66
2023/10/10 06:50:50;;;;;;;21.37;20.57;;;13.70;99.90;;;;;;5111814;28;20321;-67
2023/10/10 06:53:34;;;;;;;21.03;20.23;;;13.70;99.90;;;;;;5111892;28;20253;-66
2023/10/10 06:56:14;;;;;;;18.97;18.17;;;13.80;99.90;;;;;;5111177;28;20282;-65
2023/10/10 06:58:44;;;;;;;20.33;19.50;;;13.90;99.90;;;;;;5115574;28;20213;-66
2023/10/10 07:01:11;;;;;;;18.80;18.10;;;14.00;99.90;;;;;;5115036;28;20627;-66
2023/10/10 07:03:39;;;;;;;18.53;17.73;;;14.10;99.90;;;;;;5117019;28;20267;-67
2023/10/10 07:06:08;;;;;;;19.67;18.87;;;14.20;99.90;;;;;;5116763;28;20209;-66
2023/10/10 07:08:34;;;;;;;16.17;15.57;;;14.40;99.90;;;;;;5116704;28;20574;-67
2023/10/10 07:11:02;;;;;;;19.37;18.67;;;14.50;99.90;;;;;;5116352;28;20668;-67
2023/10/10 07:13:30;;;;;;;20.27;19.47;;;14.50;99.90;;;;;;5116590;28;20232;-67
2023/10/10 07:15:59;;;;;;;17.67;16.97;;;14.60;99.90;;;;;;5111750;28;20206;-66
2023/10/10 07:18:26;;;;;;;15.70;15.10;;;14.70;99.90;;;;;;5111503;28;20213;-68
2023/10/10 07:21:18;;;;;;;17.17;16.53;;;14.80;99.90;;;;;;5115506;28;20198;-66
2023/10/10 07:24:02;;;;;;;17.60;16.97;;;14.90;99.90;;;;;;5115120;28;20233;-66
2023/10/10 07:26:31;;;;;;;17.23;16.60;;;15.10;99.90;;;;;;5112182;28;20745;-68
2023/10/10 07:29:25;;;;;;;15.60;15.00;;;15.20;99.90;;;;;;5111485;28;20237;-67
2023/10/10 07:31:46;;;;;;;16.47;15.77;;;15.30;99.90;;;;;;5114063;28;20230;-67
2023/10/10 07:34:15;;;;;;;16.52;15.93;;;15.50;99.90;;;;;;5116949;28;20388;-68
2023/10/10 07:36:43;;;;;;;16.30;15.70;;;15.60;99.90;;;;;;5115805;28;20241;-67
2023/10/10 07:41:57;;;;;;;15.23;14.63;;;15.80;99.90;;;;;;5111780;28;20204;-67
2023/10/10 07:44:25;;;;;;;15.20;14.60;;;15.90;99.90;;;;;;5115794;28;20696;-67
2023/10/10 07:47:19;;;;;;;15.20;14.60;;;16.00;99.90;;;;;;5115579;28;20209;-67
2023/10/10 07:49:50;;;;;;;15.53;14.93;;;16.10;99.90;;;;;;5113740;28;20218;-66
2023/10/10 07:52:20;;;;;;;15.23;14.63;;;16.20;99.90;;;;;;5115086;28;20201;-68
2023/10/10 07:54:51;;;;;;;15.83;15.20;;;16.40;99.90;;;;;;5115556;28;20240;-68
2023/10/10 07:57:22;;;;;;;15.87;15.27;;;16.50;99.90;;;;;;5115273;28;20202;-67
2023/10/10 07:59:54;;;;;;;16.07;15.37;;;16.70;99.90;;;;;;5114588;28;20229;-68
2023/10/10 08:02:31;;;;;;;17.10;16.50;;;16.80;99.90;;;;;;5114496;28;20217;-67
2023/10/10 08:05:01;;;;;;;17.57;16.93;;;17.00;99.90;;;;;;5114806;28;20255;-67
2023/10/10 08:07:28;;;;;;;16.97;16.30;;;17.20;99.90;;;;;;5110707;28;20209;-67
2023/10/10 08:10:13;;;;;;;17.10;16.50;;;17.40;99.90;;;;;;5110698;28;20233;-68
2023/10/10 08:12:40;;;;;;;17.80;17.00;;;17.40;99.90;;;;;;5113056;28;20258;-67
2023/10/10 08:15:19;;;;;;;18.43;17.73;;;17.40;99.90;;;;;;5118175;28;20253;-67
2023/10/10 08:17:52;;;;;;;17.60;16.90;;;17.50;99.90;;;;;;5119472;28;20251;-68
2023/10/10 08:20:34;;;;;;;17.13;16.43;;;17.70;99.90;;;;;;5119628;28;20202;-67
2023/10/10 08:23:02;;;;;;;16.40;15.80;;;18.00;99.90;;;;;;5115600;28;20225;-67
2023/10/10 08:25:29;;;;;;;17.20;16.50;;;18.30;99.90;;;;;;5116761;28;20692;-68
2023/10/10 08:27:56;;;;;;;17.83;17.13;;;18.50;99.90;;;;;;5110103;28;20251;-68
2023/10/10 08:30:25;;;;;;;18.07;17.37;;;18.70;99.90;;;;;;5115566;28;20232;-67
2023/10/10 08:32:54;;;;;;;19.90;19.10;;;18.70;99.90;;;;;;5114477;28;20234;-66
2023/10/10 08:35:23;;;;;;;18.27;17.57;;;19.00;99.90;;;;;;5114254;28;20676;-67
2023/10/10 08:37:51;;;;;;;19.50;18.80;;;19.20;99.90;;;;;;5114238;28;20290;-67
2023/10/10 08:40:19;;;;;;;19.20;18.50;;;19.40;99.90;;;;;;5114972;28;20202;-67
2023/10/10 08:42:48;;;;;;;19.80;19.00;;;19.50;99.90;;;;;;5114075;28;20226;-67
2023/10/10 08:45:23;;;;;;;19.60;18.90;;;19.60;99.90;;;;;;5114037;28;20208;-67
2023/10/10 08:47:58;;;;;;;18.80;18.00;;;19.60;99.90;;;;;;5114031;28;20491;-67
2023/10/10 08:50:25;;;;;;;18.87;18.17;;;19.70;99.90;;;;;;5113954;28;20232;-67
2023/10/10 08:52:52;;;;;;;19.60;18.90;;;19.70;99.90;;;;;;5113715;28;20229;-67
2023/10/10 08:55:26;;;;;;;19.90;19.20;;;19.70;99.90;;;;;;5114357;28;20205;-67
2023/10/10 08:57:55;;;;;;;18.90;18.20;;;19.80;99.90;;;;;;5113650;28;20206;-66
2023/10/10 09:00:22;;;;;;;18.87;18.17;;;19.80;99.90;;;;;;5113637;28;20197;-68
2023/10/10 09:02:50;;;;;;;20.08;19.33;;;19.80;99.90;;;;;;5113548;28;20232;-68
2023/10/10 09:05:19;;;;;;;20.33;19.43;;;19.90;99.90;;;;;;5113433;28;20252;-68
2023/10/10 09:07:46;;;;;;;20.03;19.13;;;19.90;99.90;;;;;;5114085;28;20198;-68
2023/10/10 09:10:14;;;;;;;18.80;18.10;;;20.00;99.90;;;;;;5114584;28;20590;-67
2023/10/10 09:12:55;;;;;;;18.73;18.03;;;20.00;99.90;;;;;;5114140;28;20229;-68
2023/10/10 09:15:23;;;;;;;18.90;18.20;;;20.00;99.90;;;;;;5113580;28;20217;-67
2023/10/10 09:17:55;;;;;;;18.50;17.73;;;20.10;99.90;;;;;;5113826;28;20213;-66
2023/10/10 09:20:28;;;;;;;18.33;17.53;;;20.10;99.90;;;;;;5113585;28;20298;-67
2023/10/10 09:23:02;;;;;;;18.87;18.07;;;20.10;99.90;;;;;;5108920;28;20274;-69
2023/10/10 09:25:41;;;;;;;19.30;18.60;;;20.00;99.90;;;;;;5108756;28;20212;-67
2023/10/10 09:28:15;;;;;;;18.33;17.55;;;20.00;99.90;;;;;;5113002;28;20217;-67
2023/10/10 09:30:45;;;;;;;18.60;17.80;;;20.10;99.90;;;;;;5113195;28;20320;-68
2023/10/10 09:33:23;;;;;;;18.13;17.43;;;20.10;99.90;;;;;;5112871;28;20572;-68
2023/10/10 09:35:54;;;;;;;16.83;16.13;;;20.20;99.90;;;;;;5112823;28;20206;-67
2023/10/10 09:38:26;;;;;;;15.23;14.63;;;20.20;99.90;;;;;;5112471;28;20293;-67
2023/10/10 09:41:10;;;;;;;18.20;17.50;;;20.20;99.90;;;;;;5113046;28;20259;-68
2023/10/10 09:43:49;;;;;;;16.57;15.87;;;20.40;99.90;;;;;;5110280;28;20303;-68
2023/10/10 09:46:25;;;;;;;17.30;16.60;;;20.50;99.90;;;;;;5112764;28;20206;-68
2023/10/10 09:54:29;;;;;;;19.90;19.10;;;21.20;99.90;;;;;;5113424;28;20251;-67
2023/10/10 09:56:58;;;;;;;16.00;15.30;;;21.30;99.90;;;;;;5107983;28;20641;-68
2023/10/10 09:59:28;;;;;;;16.63;16.03;;;21.30;99.90;;;;;;5112822;28;20210;-68
2023/10/10 10:01:59;;;;;;;17.20;16.50;;;21.40;99.90;;;;;;5112747;28;20636;-68
2023/10/10 10:04:37;;;;;;;17.20;16.50;;;21.40;99.90;;;;;;5108413;28;20715;-68
2023/10/10 10:07:18;;;;;;;17.47;16.77;;;21.50;99.90;;;;;;5109350;28;20236;-68
2023/10/10 10:10:09;;;;;;;18.08;17.17;;;21.50;99.90;;;;;;5112466;28;20212;-67
2023/10/10 10:13:13;;;;;;;16.75;16.13;;;21.40;99.90;;;;;;5110308;28;20230;-68
2023/10/10 10:15:52;;;;;;;17.50;16.80;;;21.50;99.90;;;;;;5094825;28;20692;-68
2023/10/10 10:18:44;;;;;;;17.97;17.17;;;21.60;99.90;;;;;;5112233;28;20307;-67
2023/10/10 10:21:18;;;;;;;17.60;16.90;;;21.60;99.90;;;;;;5110177;28;20259;-67
2023/10/10 10:23:56;;;;;;;17.77;16.97;;;21.60;99.90;;;;;;5112352;28;20225;-66
2023/10/10 10:26:32;;;;;;;17.40;16.60;;;21.60;99.90;;;;;;5112712;28;20212;-66
2023/10/10 10:29:00;;;;;;;17.23;16.53;;;21.60;99.90;;;;;;5108068;28;20205;-68
2023/10/10 10:31:30;;;;;;;17.53;16.73;;;21.70;99.90;;;;;;5107643;28;20226;-67
2023/10/10 10:34:08;;;;;;;17.15;16.35;;;21.70;99.90;;;;;;5107963;28;20227;-67
2023/10/10 10:36:42;;;;;;;17.52;16.80;;;21.60;99.90;;;;;;5108774;28;20229;-67
2023/10/10 10:39:35;;;;;;;18.07;17.33;;;21.80;99.90;;;;;;5111858;28;20205;-69
2023/10/10 10:42:01;;;;;;;17.90;17.10;;;21.90;99.90;;;;;;5109021;28;20206;-67
2023/10/10 10:44:44;;;;;;;18.23;17.33;;;21.90;99.90;;;;;;5112475;28;20237;-67
2023/10/10 10:47:47;;;;;;;18.77;17.97;;;22.00;99.90;;;;;;5110430;28;20212;-68
2023/10/10 10:50:30;;;;;;;19.90;19.10;;;22.20;99.90;;;;;;5110867;28;20229;-68
2023/10/10 10:53:04;;;;;;;18.33;17.60;;;22.20;99.90;;;;;;5108752;28;20732;-67
2023/10/10 10:55:39;;;;;;;18.33;17.63;;;22.20;99.90;;;;;;5108949;28;20318;-67
2023/10/10 10:58:06;;;;;;;20.80;19.77;;;22.30;99.90;;;;;;5112874;28;20213;-67
2023/10/10 11:03:23;;;;;;;18.35;17.65;;;22.50;99.90;;;;;;5112104;28;20214;-68
2023/10/10 11:05:53;;;;;;;19.52;18.73;;;22.70;99.90;;;;;;5112168;28;20205;-67
2023/10/10 11:08:50;;;;;;;19.40;18.50;;;22.80;99.90;;;;;;5113498;28;20258;-68
2023/10/10 11:11:23;;;;;;;20.38;19.33;;;22.80;99.90;;;;;;5109742;28;20217;-67
2023/10/10 11:13:51;;;;;;;20.65;19.85;;;22.80;99.90;;;;;;5112115;28;20228;-66
2023/10/10 11:16:19;;;;;;;22.63;21.67;;;23.00;99.90;;;;;;5112353;28;20226;-67
2023/10/10 11:18:57;;;;;;;21.88;20.95;;;23.20;99.90;;;;;;5111573;28;20771;-67
2023/10/10 11:21:27;;;;;;;23.02;22.13;;;23.30;99.90;;;;;;5112241;28;20594;-67
2023/10/10 11:23:57;;;;;;;20.70;19.90;;;23.30;99.90;;;;;;5112715;28;20397;-69
2023/10/10 11:26:33;;;;;;;19.35;18.55;;;23.40;99.90;;;;;;5114035;28;20209;-68
2023/10/10 11:29:00;;;;;;;16.67;16.08;;;23.30;99.90;;;;;;5114395;28;20282;-69
2023/10/10 11:31:29;;;;;;;18.40;17.70;;;23.40;99.90;;;;;;5113432;28;20233;-67
2023/10/10 11:34:10;;;;;;;18.73;17.92;;;23.50;99.90;;;;;;5118018;28;20238;-68
2023/10/10 11:36:39;;;;;;;19.37;18.57;;;23.60;99.90;;;;;;5114554;28;20657;-67
2023/10/10 11:39:21;;;;;;;18.95;18.17;;;23.60;99.90;;;;;;5119021;28;20206;-67
2023/10/10 11:41:50;;;;;;;19.35;18.60;;;23.70;99.90;;;;;;5118226;28;20198;-67
2023/10/10 11:44:20;;;;;;;18.73;18.02;;;23.70;99.90;;;;;;5113700;28;20263;-69
2023/10/10 11:46:48;;;;;;;19.55;18.75;;;23.90;99.90;;;;;;5113979;28;20213;-68
2023/10/10 11:49:16;;;;;;;18.55;17.80;;;23.90;99.90;;;;;;5118054;28;20277;-67
2023/10/10 11:51:43;;;;;;;17.90;17.20;;;24.00;99.90;;;;;;5116207;28;20229;-69
2023/10/10 11:54:09;;;;;;;17.52;16.83;;;24.00;99.90;;;;;;5116530;28;20225;-68
2023/10/10 11:56:36;;;;;;;16.95;16.25;;;24.20;99.90;;;;;;5115477;28;20217;-69
2023/10/10 11:59:09;;;;;;;17.02;16.33;;;24.20;99.90;;;;;;5115051;28;20220;-67
2023/10/10 12:01:54;;;;;;;17.00;16.35;;;24.30;99.90;;;;;;5115049;28;20288;-68
2023/10/10 12:04:21;;;;;;;17.55;16.85;;;24.40;99.90;;;;;;5115261;28;20248;-67
2023/10/10 12:06:48;;;;;;;17.92;17.23;;;24.50;99.90;;;;;;5115189;28;20206;-69
2023/10/10 12:09:19;;;;;;;17.55;16.75;;;24.60;99.90;;;;;;5115819;28;20213;-69
2023/10/10 12:11:46;;;;;;;18.25;17.45;;;24.60;99.90;;;;;;5116184;28;20462;-69
2023/10/10 12:14:19;;;;;;;18.20;17.40;;;24.60;99.90;;;;;;5115509;28;20226;-67
2023/10/10 12:16:50;;;;;;;17.92;17.05;;;24.40;99.90;;;;;;5115267;28;20657;-67
2023/10/10 12:19:17;;;;;;;17.80;17.10;;;24.50;99.90;;;;;;5115598;28;20241;-67
2023/10/10 12:21:43;;;;;;;18.50;17.80;;;24.50;99.90;;;;;;5115402;28;20202;-67
2023/10/10 12:24:10;;;;;;;18.70;17.83;;;24.50;99.90;;;;;;5116132;28;20237;-69
2023/10/10 12:26:41;;;;;;;18.70;17.90;;;24.40;99.90;;;;;;5115255;28;20583;-68
2023/10/10 12:29:10;;;;;;;17.92;17.23;;;24.40;99.90;;;;;;5115020;28;20300;-66
2023/10/10 12:31:38;;;;;;;17.80;17.10;;;24.40;99.90;;;;;;5115528;28;20238;-67
2023/10/10 12:34:09;;;;;;;17.92;17.23;;;24.40;99.90;;;;;;5114974;28;20241;-68
2023/10/10 12:36:36;;;;;;;18.90;18.10;;;24.40;99.90;;;;;;5116776;28;20251;-68
2023/10/10 12:39:14;;;;;;;18.33;17.52;;;24.40;99.90;;;;;;5116518;28;20680;-60
2023/10/10 12:41:45;;;;;;;18.63;17.92;;;24.30;99.90;;;;;;5115475;28;20237;-60
2023/10/10 12:44:12;;;;;;;18.95;18.15;;;24.00;99.90;;;;;;5115811;28;20661;-61
2023/10/10 12:46:41;;;;;;;18.00;17.17;;;23.90;99.90;;;;;;5114362;28;20206;-62
2023/10/10 12:49:11;;;;;;;18.48;17.67;;;24.00;99.90;;;;;;5113702;28;20238;-62
2023/10/10 12:51:38;;;;;;;18.70;17.90;;;24.00;99.90;;;;;;5114643;28;20743;-61
2023/10/10 12:54:06;;;;;;;18.33;17.52;;;24.00;99.90;;;;;;5114751;28;20250;-61
2023/10/10 12:56:38;;;;;;;18.55;17.75;;;24.10;99.90;;;;;;5115522;28;21023;-66
2023/10/10 12:59:07;;;;;;;19.85;18.95;;;24.20;99.90;;;;;;5115425;28;20623;-68
2023/10/10 13:01:35;;;;;;;18.00;17.30;;;24.50;99.90;;;;;;5114194;28;20206;-67
2023/10/10 13:04:07;;;;;;;17.77;17.08;;;24.70;99.90;;;;;;5113969;28;20591;-68
2023/10/10 13:06:35;;;;;;;17.95;17.25;;;24.70;99.90;;;;;;5113993;28;20206;-67
2023/10/10 13:09:05;;;;;;;17.25;16.52;;;24.70;99.90;;;;;;5116112;28;20575;-68
2023/10/10 13:11:35;;;;;;;18.42;17.63;;;24.70;99.90;;;;;;5118433;28;20293;-67
2023/10/10 13:14:10;;;;;;;17.85;17.15;;;24.80;99.90;;;;;;5115520;28;20317;-67
2023/10/10 13:16:52;;;;;;;18.02;17.23;;;24.90;99.90;;;;;;5116399;28;20213;-66
2023/10/10 13:19:21;;;;;;;17.23;16.53;;;25.00;99.90;;;;;;5115647;28;20218;-69
2023/10/10 13:21:48;;;;;;;18.98;18.27;;;25.00;99.90;;;;;;5116777;28;20202;-68
2023/10/10 13:24:15;;;;;;;17.38;16.58;;;24.90;99.90;;;;;;5113347;28;20225;-68
2023/10/10 13:26:45;;;;;;;18.13;17.35;;;25.00;99.90;;;;;;5113008;28;20210;-68
2023/10/10 13:29:13;;;;;;;19.73;18.88;;;25.00;99.90;;;;;;5113112;28;20206;-69
2023/10/10 13:31:41;;;;;;;17.48;16.73;;;25.10;99.90;;;;;;5119038;28;20225;-66
2023/10/10 13:34:08;;;;;;;17.30;16.50;;;25.10;99.90;;;;;;5113912;28;20256;-67
2023/10/10 13:36:36;;;;;;;17.85;17.08;;;25.20;99.90;;;;;;5114909;28;20214;-67
2023/10/10 13:39:07;;;;;;;17.75;17.05;;;25.20;99.90;;;;;;5112798;28;20206;-67
2023/10/10 13:41:35;;;;;;;16.90;16.20;;;25.20;99.90;;;;;;5112631;28;20212;-66
2023/10/10 13:44:03;;;;;;;16.25;15.65;;;25.30;99.90;;;;;;5112552;28;20292;-68
2023/10/10 13:46:33;;;;;;;17.48;16.77;;;25.30;99.90;;;;;;5113145;28;20252;-68
2023/10/10 13:49:00;;;;;;;18.15;17.45;;;25.50;99.90;;;;;;5094885;28;20261;-67
2023/10/10 13:51:28;;;;;;;17.95;17.15;;;25.40;99.90;;;;;;5113017;28;20222;-68
2023/10/10 13:53:57;;;;;;;17.40;16.70;;;25.50;99.90;;;;;;5112416;28;20225;-67
2023/10/10 13:56:30;;;;;;;18.95;18.15;;;25.60;99.90;;;;;;5112453;28;20232;-68
2023/10/10 13:58:57;;;;;;;17.02;16.42;;;25.50;99.90;;;;;;5112549;28;20214;-70
2023/10/10 14:01:29;;;;;;;17.55;16.85;;;25.60;99.90;;;;;;5112490;28;20206;-69
2023/10/10 14:04:01;;;;;;;18.93;18.10;;;25.60;99.90;;;;;;5112584;28;20237;-69
2023/10/10 14:06:34;;;;;;;19.35;18.55;;;25.50;99.90;;;;;;5112517;28;20595;-70
2023/10/10 14:09:03;;;;;;;19.83;19.02;;;25.60;99.90;;;;;;5111788;28;20221;-68
2023/10/10 14:11:32;;;;;;;22.52;21.63;;;25.60;99.90;;;;;;5111325;28;20239;-68
2023/10/10 14:13:59;;;;;;;20.60;19.83;;;25.60;99.90;;;;;;5112280;28;20246;-67
2023/10/10 14:16:26;;;;;;;22.23;21.33;;;25.70;99.90;;;;;;5112649;28;20248;-67
2023/10/10 14:18:53;;;;;;;23.38;22.38;;;25.70;99.90;;;;;;5111589;28;20665;-67
2023/10/10 14:21:24;;;;;;;20.75;19.95;;;25.70;99.90;;;;;;5112620;28;20201;-67
2023/10/10 14:23:55;;;;;;;19.73;19.02;;;25.80;99.90;;;;;;5112541;28;20603;-67
2023/10/10 14:26:27;;;;;;;23.15;22.25;;;25.80;99.90;;;;;;5112336;28;20214;-69
2023/10/10 14:28:55;;;;;;;15.88;15.23;;;25.90;99.90;;;;;;5113341;28;20236;-70
2023/10/10 14:31:24;;;;;;;16.10;15.50;;;25.90;99.90;;;;;;5112555;28;20691;-69
2023/10/10 14:33:51;;;;;;;16.83;16.13;;;25.80;99.90;;;;;;5113653;28;20305;-69
2023/10/10 14:36:18;;;;;;;16.48;15.88;;;25.70;99.90;;;;;;5113395;28;20209;-68
2023/10/10 14:38:45;;;;;;;16.10;15.50;;;25.90;99.90;;;;;;5112855;28;20255;-68
2023/10/10 14:41:16;;;;;;;15.48;14.77;;;26.00;99.90;;;;;;5113032;28;20213;-69
2023/10/10 14:43:47;;;;;;;15.40;14.80;;;26.00;99.90;;;;;;5112539;28;20424;-69
2023/10/10 14:46:21;;;;;;;16.65;16.05;;;26.00;99.90;;;;;;5112667;28;20228;-69
2023/10/10 14:48:48;;;;;;;17.13;16.52;;;26.10;99.90;;;;;;5111674;28;20210;-69